WetterOnline ( https://www.wetteronline.de )

Wetter aktuell Bellavista

Aktuelles Wetter: Capo Bellavista (150m)

6-stündlich | Neueste Meldungen
Ortszeit Temperatur Wetter
Fr, 04.12. 13:00 14.6° C wolkig
Fr, 04.12. 7:00 9.0° C leicht bewölkt
Fr, 04.12. 1:00 8.8° C wolkenlos
Do, 03.12. 19:00 9.4° C leicht bewölkt
Do, 03.12. 13:00 14.2° C wolkig
Do, 03.12. 7:00 8.2° C wolkenlos
Do, 03.12. 1:00 8.2° C leicht bewölkt
Mi, 02.12. 19:00 8.4° C bewölkt
Ortszeit Temperatur Wetter
Fr, 04.12. 15:55 14° C bewölkt
Fr, 04.12. 15:00 14.8° C wolkig
Fr, 04.12. 14:55 15° C leicht bewölkt
Fr, 04.12. 14:00 14.8° C wolkig
Fr, 04.12. 13:55 15° C leicht bewölkt
Fr, 04.12. 13:00 14.6° C wolkig
Fr, 04.12. 12:55 15° C leicht bewölkt
Fr, 04.12. 12:00 14.0° C bewölkt
Ortszeit Relative Feuchte Sichtweite
Fr, 04.12. 13:00 59% 20 km
Fr, 04.12. 7:00 75% 10 km
Fr, 04.12. 1:00 54% 10 km
Do, 03.12. 19:00 50% 12 km
Do, 03.12. 13:00 36% 20 km
Do, 03.12. 7:00 53% 20 km
Do, 03.12. 1:00 71% 20 km
Mi, 02.12. 19:00 88% 20 km
Ortszeit Relative Feuchte Sichtweite
Fr, 04.12. 15:55 72% >10 km
Fr, 04.12. 15:00 65% 10 km
Fr, 04.12. 14:55 63% >10 km
Fr, 04.12. 14:00 65% 20 km
Fr, 04.12. 13:55 63% >10 km
Fr, 04.12. 13:00 59% 20 km
Fr, 04.12. 12:55 59% >10 km
Fr, 04.12. 12:00 60% 20 km
Ortszeit Niederschlagsmenge Niederschlagsart
Fr, 04.12. 13:00 0.0 l/m2 in 6 Std. -
Fr, 04.12. 7:00 0.0 l/m2 in 12 Std. -
Fr, 04.12. 1:00 0.0 l/m2 in 6 Std. -
Do, 03.12. 19:00 0.0 l/m2 in 12 Std. -
Do, 03.12. 13:00 0.0 l/m2 in 6 Std. -
Do, 03.12. 7:00 0.0 l/m2 in 12 Std. -
Do, 03.12. 1:00 0.0 l/m2 in 6 Std. -
Mi, 02.12. 19:00 10 l/m2 in 12 Std. Regen
Ortszeit Niederschlagsmenge Niederschlagsart
Fr, 04.12. 15:55 keine Meldung -
Fr, 04.12. 15:00 keine Meldung -
Fr, 04.12. 14:55 keine Meldung -
Fr, 04.12. 14:00 keine Meldung -
Fr, 04.12. 13:55 keine Meldung -
Fr, 04.12. 13:00 keine Meldung -
Fr, 04.12. 12:55 keine Meldung -
Fr, 04.12. 12:00 keine Meldung -
Ortszeit Stärke Spitze Richtung
km/h Bft. km/h Grad Sektor
Fr, 04.12. 13:00 39 6 - 210° SW
Fr, 04.12. 7:00 4 1 - 290° W
Fr, 04.12. 1:00 6 1 - 10° N
Do, 03.12. 19:00 11 2 - 140° SO
Do, 03.12. 13:00 22 4 - 340° N
Do, 03.12. 7:00 20 4 - 310° NW
Do, 03.12. 1:00 30 5 - 330° NW
Mi, 02.12. 19:00 13 3 - 310° NW
Ortszeit Stärke Spitze Richtung
km/h Bft. km/h Grad Sektor
Fr, 04.12. 15:55 30 5 - 230° SW
Fr, 04.12. 15:00 37 5 - 220° SW
Fr, 04.12. 14:55 37 5 61 220° SW
Fr, 04.12. 14:00 50 6 - 210° SW
Fr, 04.12. 13:55 50 6 - 210° SW
Fr, 04.12. 13:00 39 6 - 210° SW
Fr, 04.12. 12:55 39 6 - 210° SW
Fr, 04.12. 12:00 35 5 - 210° SW
Ortszeit Untergrenze Bedeckung Gattung
total tief tief mittel hoch
Fr, 04.12. 13:00 1050 m 7/8 3/8 Cu As Ci
Fr, 04.12. 7:00 1200 m 6/8 1/8 Cu As -
Fr, 04.12. 1:00 - 0/8 0/8 - - -
Do, 03.12. 19:00 1200 m 2/8 2/8 Cu - -
Do, 03.12. 13:00 1050 m 6/8 5/8 Cu - Ci
Do, 03.12. 7:00 - 0/8 0/8 - - -
Do, 03.12. 1:00 900 m 6/8 1/8 Cu As Ci
Mi, 02.12. 19:00 1200 m 8/8 3/8 Cu Ns Ci
Ortszeit Bedeckungsgrad in Achtel und Wolkenuntergrenze
Fr, 04.12. 15:55 5-7(750m) 3-4(1500m)
Fr, 04.12. 15:00 3(600m) 3(2100m)
Fr, 04.12. 14:55 3-4(600m) 1-2(750m)
Fr, 04.12. 14:00 3(1050m) 5(2700m)
Fr, 04.12. 13:55 3-4(1050m)
Fr, 04.12. 13:00 3(1050m) 4(2700m)
Fr, 04.12. 12:55 3-4(1050m)
Fr, 04.12. 12:00 2(1200m) 6(2700m)
Ortszeit Luftdruck NN (hPa) Tendenz (hPa in 3 Std.)
Fr, 04.12. 13:00 1000 - 1,9
Fr, 04.12. 7:00 1006 + 0,2
Fr, 04.12. 1:00 1006 - 0,2
Do, 03.12. 19:00 1006 0,0
Do, 03.12. 13:00 1006 - 0,3
Do, 03.12. 7:00 1006 0,0
Do, 03.12. 1:00 1006 0,0
Mi, 02.12. 19:00 1006 + 0,5
Ortszeit Luftdruck NN (hPa) Tendenz (hPa in 3 Std.)
Fr, 04.12. 15:55 999 keine Meldung
Fr, 04.12. 15:00 999 - 1,8
Fr, 04.12. 14:55 998 keine Meldung
Fr, 04.12. 14:00 999 - 2,5
Fr, 04.12. 13:55 998 keine Meldung
Fr, 04.12. 13:00 1000 - 1,9
Fr, 04.12. 12:55 999 keine Meldung
Fr, 04.12. 12:00 1000 - 1,9
Ortszeit Schneehöhe (cm)
Fr, 04.12. 13:00 -
Fr, 04.12. 7:00 -
Fr, 04.12. 1:00 -
Do, 03.12. 19:00 -
Do, 03.12. 13:00 -
Do, 03.12. 7:00 0
Do, 03.12. 1:00 -
Mi, 02.12. 19:00 -
Ortszeit Schneehöhe (cm)
Fr, 04.12. 15:55 -
Fr, 04.12. 15:00 -
Fr, 04.12. 14:55 -
Fr, 04.12. 14:00 -
Fr, 04.12. 13:55 -
Fr, 04.12. 13:00 -
Fr, 04.12. 12:55 -
Fr, 04.12. 12:00 -
Link zu dieser Seite / Seite empfehlen

Das Wetter in ...